Airfield :
LOGIN :

Register | Disclaimer

   EN    FR    IT 

 










Legend :    VFR   Marginal VFR   IFR   Intensive IFR   Very Intensive IFR
Visi :
Ceiling :
>= 8 km
>= 3000ft
5 to 8 km
1000 to 3000 ft
1500m to 5 km
500 to 1000 ft
800 to 1500m
200 to 500 ft
< 800m
< 200 ft
Symbols :   Thunderstorms  Fog  Heavy snow  Heavy precipitations  Wind > 20 kt
SIGMETs :     Misc.  Thunderstorms  Icing  Turbulence  Mountain Waves  Volcanic Ashes






- Airport Elevation : 256 ft
- IATA code : CFR


LFRK - Caen

CURRENT METAR :
  • 270730Z AUTO 33016KT 9999 BKN030 OVC037 11/06 Q1011 TEMPO 33020G30KT 4000 -RA

EXPIRED METARs :
  • 270700Z AUTO 33016KT 9999 BKN030 OVC035 11/06 Q1011 TEMPO 33020G30KT 4000 -RA
  • 270630Z AUTO 33016KT 9999 BKN030 OVC036 11/06 Q1011 TEMPO 33020G30KT 4000 -RA
  • 270600Z AUTO 32014KT 9999 BKN030 OVC037 12/06 Q1011 TEMPO 33020G30KT
  • 270530Z AUTO 33014KT 9999 BKN032 OVC041 12/06 Q1011 TEMPO 33020G30KT
  • 270500Z AUTO 32014KT 9999 OVC036 12/06 Q1011

TAF TAF LFRK
Valid from the 27 at 06:00 until the 27 at 15:00 UTC


270500Z 2706/2715 33015G25KT 9999 BKN030
PROB30
TEMPO 2708/2715 4000 -RA BKN015
TEMPO 2706/2713 33020G30KT
Met : +33 2 31 26 68 11



MET'MAP, your aeronautical weather chart ! - Copyright ORBIFLY December 2007 - Disclaimer

ORBIFLY MET'MAP TEAM :

Programming & Development : Alexandra Zaïnal
Concept & original design : Baudouin d'Aumeries
Assistance for programming : Marc-Olivier Méhu
Technical & hardware support : Manuel Goepfert

Contact : metmap@orbifly.com




SOURCES & CREDITS :

   NOAA